sensor_id;sensor_type;location;lat;lon;timestamp;temperature;humidity
5210;DHT22;2624;48.048;11.706;2023-05-29T00:01:52;15.50;98.60
5210;DHT22;2624;48.048;11.706;2023-05-29T00:06:53;15.70;98.70
5210;DHT22;2624;48.048;11.706;2023-05-29T00:11:57;15.60;98.10
5210;DHT22;2624;48.048;11.706;2023-05-29T00:16:59;15.50;99.20
5210;DHT22;2624;48.048;11.706;2023-05-29T00:22:00;15.70;98.60
5210;DHT22;2624;48.048;11.706;2023-05-29T00:27:04;14.80;99.30
5210;DHT22;2624;48.048;11.706;2023-05-29T00:32:06;15.00;99.70
5210;DHT22;2624;48.048;11.706;2023-05-29T00:37:07;14.90;99.60
5210;DHT22;2624;48.048;11.706;2023-05-29T00:42:11;15.50;99.20
5210;DHT22;2624;48.048;11.706;2023-05-29T00:47:13;15.60;98.60
5210;DHT22;2624;48.048;11.706;2023-05-29T00:52:15;14.80;99.90
5210;DHT22;2624;48.048;11.706;2023-05-29T00:57:18;14.60;99.90
5210;DHT22;2624;48.048;11.706;2023-05-29T01:02:21;14.40;99.70
5210;DHT22;2624;48.048;11.706;2023-05-29T01:07:23;14.60;99.90
5210;DHT22;2624;48.048;11.706;2023-05-29T01:12:35;14.80;99.50
5210;DHT22;2624;48.048;11.706;2023-05-29T01:17:46;14.00;99.50
5210;DHT22;2624;48.048;11.706;2023-05-29T01:28:21;14.00;99.90
5210;DHT22;2624;48.048;11.706;2023-05-29T01:33:26;14.30;99.90
5210;DHT22;2624;48.048;11.706;2023-05-29T01:38:28;14.50;99.20
5210;DHT22;2624;48.048;11.706;2023-05-29T01:43:31;14.30;99.90
5210;DHT22;2624;48.048;11.706;2023-05-29T01:48:33;15.20;99.90
5210;DHT22;2624;48.048;11.706;2023-05-29T01:53:35;15.10;99.70
5210;DHT22;2624;48.048;11.706;2023-05-29T01:58:40;14.50;99.20
5210;DHT22;2624;48.048;11.706;2023-05-29T02:03:42;13.50;99.90
5210;DHT22;2624;48.048;11.706;2023-05-29T02:08:44;14.30;99.90
5210;DHT22;2624;48.048;11.706;2023-05-29T02:13:47;14.80;99.80
5210;DHT22;2624;48.048;11.706;2023-05-29T02:18:49;14.70;99.20
5210;DHT22;2624;48.048;11.706;2023-05-29T02:23:52;14.80;99.80
5210;DHT22;2624;48.048;11.706;2023-05-29T02:28:55;14.30;98.70
5210;DHT22;2624;48.048;11.706;2023-05-29T02:33:57;14.50;99.90
5210;DHT22;2624;48.048;11.706;2023-05-29T02:38:58;14.70;99.90
5210;DHT22;2624;48.048;11.706;2023-05-29T02:44:02;14.10;99.80
5210;DHT22;2624;48.048;11.706;2023-05-29T02:49:03;14.30;99.40
5210;DHT22;2624;48.048;11.706;2023-05-29T02:54:05;13.60;99.30
5210;DHT22;2624;48.048;11.706;2023-05-29T02:59:08;13.30;99.80
5210;DHT22;2624;48.048;11.706;2023-05-29T03:04:10;13.60;99.90
5210;DHT22;2624;48.048;11.706;2023-05-29T03:09:13;14.40;99.90
5210;DHT22;2624;48.048;11.706;2023-05-29T03:14:17;14.50;99.70
5210;DHT22;2624;48.048;11.706;2023-05-29T03:19:22;14.10;99.80
5210;DHT22;2624;48.048;11.706;2023-05-29T03:24:23;13.20;99.90
5210;DHT22;2624;48.048;11.706;2023-05-29T03:29:26;14.20;99.90
5210;DHT22;2624;48.048;11.706;2023-05-29T03:34:28;14.20;98.60
5210;DHT22;2624;48.048;11.706;2023-05-29T03:39:30;13.40;99.90
5210;DHT22;2624;48.048;11.706;2023-05-29T03:44:33;13.80;99.90
5210;DHT22;2624;48.048;11.706;2023-05-29T03:49:35;14.40;99.70
5210;DHT22;2624;48.048;11.706;2023-05-29T03:54:37;12.70;99.70
5210;DHT22;2624;48.048;11.706;2023-05-29T03:59:40;12.20;99.90
5210;DHT22;2624;48.048;11.706;2023-05-29T04:04:42;13.20;99.90
5210;DHT22;2624;48.048;11.706;2023-05-29T04:09:44;13.30;99.90
5210;DHT22;2624;48.048;11.706;2023-05-29T04:14:47;13.20;99.70
5210;DHT22;2624;48.048;11.706;2023-05-29T04:19:48;12.80;99.90
5210;DHT22;2624;48.048;11.706;2023-05-29T04:24:50;12.80;99.90
5210;DHT22;2624;48.048;11.706;2023-05-29T04:29:53;12.50;99.90
5210;DHT22;2624;48.048;11.706;2023-05-29T04:34:56;13.10;99.90
5210;DHT22;2624;48.048;11.706;2023-05-29T04:40:02;12.80;99.90
5210;DHT22;2624;48.048;11.706;2023-05-29T04:45:10;12.00;99.90
5210;DHT22;2624;48.048;11.706;2023-05-29T04:50:12;12.50;99.90
5210;DHT22;2624;48.048;11.706;2023-05-29T04:55:14;13.00;99.90
5210;DHT22;2624;48.048;11.706;2023-05-29T05:00:19;13.20;99.90
5210;DHT22;2624;48.048;11.706;2023-05-29T05:05:21;13.50;99.90
5210;DHT22;2624;48.048;11.706;2023-05-29T05:10:22;13.60;99.90
5210;DHT22;2624;48.048;11.706;2023-05-29T05:15:25;13.40;99.90
5210;DHT22;2624;48.048;11.706;2023-05-29T05:20:27;12.90;99.90
5210;DHT22;2624;48.048;11.706;2023-05-29T05:25:29;12.80;99.90
5210;DHT22;2624;48.048;11.706;2023-05-29T05:30:32;12.90;99.90
5210;DHT22;2624;48.048;11.706;2023-05-29T05:35:34;12.60;99.90
5210;DHT22;2624;48.048;11.706;2023-05-29T05:40:36;12.60;99.90
5210;DHT22;2624;48.048;11.706;2023-05-29T05:45:39;13.10;99.90
5210;DHT22;2624;48.048;11.706;2023-05-29T05:50:42;13.40;99.90
5210;DHT22;2624;48.048;11.706;2023-05-29T05:55:44;13.40;99.90
5210;DHT22;2624;48.048;11.706;2023-05-29T06:00:47;13.10;99.90
5210;DHT22;2624;48.048;11.706;2023-05-29T06:05:52;13.00;99.90
5210;DHT22;2624;48.048;11.706;2023-05-29T06:10:54;13.50;99.90
5210;DHT22;2624;48.048;11.706;2023-05-29T06:15:57;13.40;99.90
5210;DHT22;2624;48.048;11.706;2023-05-29T06:20:59;13.30;99.90
5210;DHT22;2624;48.048;11.706;2023-05-29T06:26:01;13.10;99.90
5210;DHT22;2624;48.048;11.706;2023-05-29T06:31:05;13.40;99.90
5210;DHT22;2624;48.048;11.706;2023-05-29T06:36:07;13.50;99.90
5210;DHT22;2624;48.048;11.706;2023-05-29T06:41:09;13.60;99.90
5210;DHT22;2624;48.048;11.706;2023-05-29T06:46:12;13.60;99.90
5210;DHT22;2624;48.048;11.706;2023-05-29T06:51:14;13.90;99.90
5210;DHT22;2624;48.048;11.706;2023-05-29T06:56:15;13.80;99.90
5210;DHT22;2624;48.048;11.706;2023-05-29T07:01:19;13.80;99.90
5210;DHT22;2624;48.048;11.706;2023-05-29T07:06:20;13.90;99.90
5210;DHT22;2624;48.048;11.706;2023-05-29T07:11:22;13.90;99.90
5210;DHT22;2624;48.048;11.706;2023-05-29T07:16:25;14.00;99.90
5210;DHT22;2624;48.048;11.706;2023-05-29T07:21:27;14.10;99.90
5210;DHT22;2624;48.048;11.706;2023-05-29T07:26:29;14.20;99.90
5210;DHT22;2624;48.048;11.706;2023-05-29T07:31:32;14.30;99.90
5210;DHT22;2624;48.048;11.706;2023-05-29T07:36:34;14.30;99.90
5210;DHT22;2624;48.048;11.706;2023-05-29T07:41:36;14.50;99.90
5210;DHT22;2624;48.048;11.706;2023-05-29T07:46:39;14.50;99.90
5210;DHT22;2624;48.048;11.706;2023-05-29T07:51:41;14.60;99.90
5210;DHT22;2624;48.048;11.706;2023-05-29T07:56:43;14.80;99.90
5210;DHT22;2624;48.048;11.706;2023-05-29T08:01:46;14.80;99.90
5210;DHT22;2624;48.048;11.706;2023-05-29T08:06:48;15.00;99.90
5210;DHT22;2624;48.048;11.706;2023-05-29T08:11:49;15.20;99.90
5210;DHT22;2624;48.048;11.706;2023-05-29T08:16:53;15.40;99.90
5210;DHT22;2624;48.048;11.706;2023-05-29T08:21:54;16.00;99.90
5210;DHT22;2624;48.048;11.706;2023-05-29T08:26:56;16.10;99.90
5210;DHT22;2624;48.048;11.706;2023-05-29T08:31:59;16.40;99.90
5210;DHT22;2624;48.048;11.706;2023-05-29T08:37:02;16.40;99.90
5210;DHT22;2624;48.048;11.706;2023-05-29T08:42:07;16.50;99.90
5210;DHT22;2624;48.048;11.706;2023-05-29T08:47:14;16.20;99.90
5210;DHT22;2624;48.048;11.706;2023-05-29T08:52:22;17.00;99.90
5210;DHT22;2624;48.048;11.706;2023-05-29T08:57:26;17.30;99.90
5210;DHT22;2624;48.048;11.706;2023-05-29T09:02:30;17.30;99.90
5210;DHT22;2624;48.048;11.706;2023-05-29T09:07:31;16.80;99.90
5210;DHT22;2624;48.048;11.706;2023-05-29T09:12:34;16.90;99.90
5210;DHT22;2624;48.048;11.706;2023-05-29T09:17:37;16.70;99.90
5210;DHT22;2624;48.048;11.706;2023-05-29T09:22:42;18.00;99.90
5210;DHT22;2624;48.048;11.706;2023-05-29T09:27:44;18.00;99.80
5210;DHT22;2624;48.048;11.706;2023-05-29T09:32:53;17.20;99.90
5210;DHT22;2624;48.048;11.706;2023-05-29T09:37:55;19.30;97.60
5210;DHT22;2624;48.048;11.706;2023-05-29T09:43:02;19.10;98.30
5210;DHT22;2624;48.048;11.706;2023-05-29T09:48:07;18.40;98.90
5210;DHT22;2624;48.048;11.706;2023-05-29T09:53:16;19.10;98.50
5210;DHT22;2624;48.048;11.706;2023-05-29T09:58:20;19.30;99.10
5210;DHT22;2624;48.048;11.706;2023-05-29T10:03:24;19.90;95.20
5210;DHT22;2624;48.048;11.706;2023-05-29T10:08:26;19.10;98.20
5210;DHT22;2624;48.048;11.706;2023-05-29T10:13:33;18.60;98.80
5210;DHT22;2624;48.048;11.706;2023-05-29T10:18:39;19.90;97.70
5210;DHT22;2624;48.048;11.706;2023-05-29T10:23:48;20.90;94.50
5210;DHT22;2624;48.048;11.706;2023-05-29T10:29:05;19.00;97.80
5210;DHT22;2624;48.048;11.706;2023-05-29T10:34:18;19.00;98.40
5210;DHT22;2624;48.048;11.706;2023-05-29T10:39:23;18.80;98.30
5210;DHT22;2624;48.048;11.706;2023-05-29T10:44:38;20.30;97.30
5210;DHT22;2624;48.048;11.706;2023-05-29T10:49:50;19.50;97.20
5210;DHT22;2624;48.048;11.706;2023-05-29T10:54:54;20.30;95.90
5210;DHT22;2624;48.048;11.706;2023-05-29T10:59:59;20.50;96.50
5210;DHT22;2624;48.048;11.706;2023-05-29T11:05:17;20.20;96.20
5210;DHT22;2624;48.048;11.706;2023-05-29T11:10:44;19.60;98.50
5210;DHT22;2624;48.048;11.706;2023-05-29T11:15:46;19.00;98.20
5210;DHT22;2624;48.048;11.706;2023-05-29T11:20:56;19.10;98.10
5210;DHT22;2624;48.048;11.706;2023-05-29T11:25:59;20.10;97.30
5210;DHT22;2624;48.048;11.706;2023-05-29T11:31:01;20.20;97.20
5210;DHT22;2624;48.048;11.706;2023-05-29T11:36:10;19.50;97.80
5210;DHT22;2624;48.048;11.706;2023-05-29T11:41:12;19.80;98.30
5210;DHT22;2624;48.048;11.706;2023-05-29T11:46:17;21.40;95.00
5210;DHT22;2624;48.048;11.706;2023-05-29T11:51:21;20.20;97.00
5210;DHT22;2624;48.048;11.706;2023-05-29T11:56:23;19.70;97.60
5210;DHT22;2624;48.048;11.706;2023-05-29T12:01:26;21.30;94.90
5210;DHT22;2624;48.048;11.706;2023-05-29T12:06:34;21.80;95.50
5210;DHT22;2624;48.048;11.706;2023-05-29T12:11:38;22.10;94.20
5210;DHT22;2624;48.048;11.706;2023-05-29T12:16:39;20.70;96.40
5210;DHT22;2624;48.048;11.706;2023-05-29T12:21:43;20.60;96.50
5210;DHT22;2624;48.048;11.706;2023-05-29T12:26:45;20.20;96.90
5210;DHT22;2624;48.048;11.706;2023-05-29T12:31:57;20.30;97.00
5210;DHT22;2624;48.048;11.706;2023-05-29T12:37:06;21.20;95.40
5210;DHT22;2624;48.048;11.706;2023-05-29T12:42:10;20.30;96.70
5210;DHT22;2624;48.048;11.706;2023-05-29T12:47:14;20.70;96.30
5210;DHT22;2624;48.048;11.706;2023-05-29T12:52:21;21.20;96.10
5210;DHT22;2624;48.048;11.706;2023-05-29T12:57:25;20.70;96.30
5210;DHT22;2624;48.048;11.706;2023-05-29T13:02:26;20.70;96.20
5210;DHT22;2624;48.048;11.706;2023-05-29T13:07:31;20.30;96.40
5210;DHT22;2624;48.048;11.706;2023-05-29T13:12:33;20.90;95.90
5210;DHT22;2624;48.048;11.706;2023-05-29T13:17:35;20.40;95.90
5210;DHT22;2624;48.048;11.706;2023-05-29T13:22:39;20.40;95.80
5210;DHT22;2624;48.048;11.706;2023-05-29T13:27:42;20.90;95.60
5210;DHT22;2624;48.048;11.706;2023-05-29T13:32:45;21.00;95.30
5210;DHT22;2624;48.048;11.706;2023-05-29T13:37:48;21.30;95.20
5210;DHT22;2624;48.048;11.706;2023-05-29T13:42:50;21.30;95.20
5210;DHT22;2624;48.048;11.706;2023-05-29T13:47:52;21.00;95.70
5210;DHT22;2624;48.048;11.706;2023-05-29T13:52:55;21.00;95.50
5210;DHT22;2624;48.048;11.706;2023-05-29T13:57:56;21.50;95.60
5210;DHT22;2624;48.048;11.706;2023-05-29T14:02:59;21.30;95.10
5210;DHT22;2624;48.048;11.706;2023-05-29T14:08:02;21.10;95.10
5210;DHT22;2624;48.048;11.706;2023-05-29T14:13:04;20.80;94.80
5210;DHT22;2624;48.048;11.706;2023-05-29T14:18:05;21.30;95.00
5210;DHT22;2624;48.048;11.706;2023-05-29T14:23:09;21.50;94.60
5210;DHT22;2624;48.048;11.706;2023-05-29T14:28:14;21.60;94.10
5210;DHT22;2624;48.048;11.706;2023-05-29T14:33:15;21.60;94.00
5210;DHT22;2624;48.048;11.706;2023-05-29T14:38:18;21.90;93.70
5210;DHT22;2624;48.048;11.706;2023-05-29T14:43:20;21.70;93.10
5210;DHT22;2624;48.048;11.706;2023-05-29T14:48:22;21.20;94.50
5210;DHT22;2624;48.048;11.706;2023-05-29T14:53:25;21.50;93.80
5210;DHT22;2624;48.048;11.706;2023-05-29T14:58:27;21.60;92.90
5210;DHT22;2624;48.048;11.706;2023-05-29T15:03:29;21.60;93.90
5210;DHT22;2624;48.048;11.706;2023-05-29T15:08:32;21.70;93.50
5210;DHT22;2624;48.048;11.706;2023-05-29T15:13:35;21.80;92.70
5210;DHT22;2624;48.048;11.706;2023-05-29T15:18:36;21.60;93.10
5210;DHT22;2624;48.048;11.706;2023-05-29T15:23:39;21.70;93.60
5210;DHT22;2624;48.048;11.706;2023-05-29T15:28:43;21.80;93.80
5210;DHT22;2624;48.048;11.706;2023-05-29T15:33:45;21.70;93.70
5210;DHT22;2624;48.048;11.706;2023-05-29T15:38:48;21.60;93.80
5210;DHT22;2624;48.048;11.706;2023-05-29T15:43:50;21.70;94.00
5210;DHT22;2624;48.048;11.706;2023-05-29T15:48:52;21.90;93.10
5210;DHT22;2624;48.048;11.706;2023-05-29T15:53:55;21.60;93.80
5210;DHT22;2624;48.048;11.706;2023-05-29T15:58:57;21.60;93.80
5210;DHT22;2624;48.048;11.706;2023-05-29T16:03:58;21.70;92.60
5210;DHT22;2624;48.048;11.706;2023-05-29T16:09:01;21.90;92.60
5210;DHT22;2624;48.048;11.706;2023-05-29T16:14:03;21.90;94.00
5210;DHT22;2624;48.048;11.706;2023-05-29T16:19:05;21.70;94.30
5210;DHT22;2624;48.048;11.706;2023-05-29T16:24:08;21.70;93.50
5210;DHT22;2624;48.048;11.706;2023-05-29T16:29:10;21.60;93.50
5210;DHT22;2624;48.048;11.706;2023-05-29T16:34:12;21.70;93.20
5210;DHT22;2624;48.048;11.706;2023-05-29T16:39:15;21.60;93.70
5210;DHT22;2624;48.048;11.706;2023-05-29T16:44:22;21.70;94.20
5210;DHT22;2624;48.048;11.706;2023-05-29T16:49:23;21.60;94.10
5210;DHT22;2624;48.048;11.706;2023-05-29T16:54:27;21.50;93.30
5210;DHT22;2624;48.048;11.706;2023-05-29T16:59:31;21.50;94.00
5210;DHT22;2624;48.048;11.706;2023-05-29T17:04:33;21.50;92.40
5210;DHT22;2624;48.048;11.706;2023-05-29T17:09:37;21.50;93.60
5210;DHT22;2624;48.048;11.706;2023-05-29T17:14:39;21.50;92.80
5210;DHT22;2624;48.048;11.706;2023-05-29T17:19:41;21.40;94.10
5210;DHT22;2624;48.048;11.706;2023-05-29T17:24:44;21.40;92.80
5210;DHT22;2624;48.048;11.706;2023-05-29T17:29:46;21.40;94.50
5210;DHT22;2624;48.048;11.706;2023-05-29T17:34:47;21.30;93.60
5210;DHT22;2624;48.048;11.706;2023-05-29T17:39:53;21.30;94.20
5210;DHT22;2624;48.048;11.706;2023-05-29T17:44:55;21.20;93.90
5210;DHT22;2624;48.048;11.706;2023-05-29T17:49:57;21.10;93.20
5210;DHT22;2624;48.048;11.706;2023-05-29T17:55:00;21.20;95.20
5210;DHT22;2624;48.048;11.706;2023-05-29T18:00:02;21.10;93.00
5210;DHT22;2624;48.048;11.706;2023-05-29T18:05:05;20.90;94.30
5210;DHT22;2624;48.048;11.706;2023-05-29T18:10:09;20.90;93.60
5210;DHT22;2624;48.048;11.706;2023-05-29T18:15:11;20.80;93.40
5210;DHT22;2624;48.048;11.706;2023-05-29T18:20:14;20.70;93.40
5210;DHT22;2624;48.048;11.706;2023-05-29T18:25:20;20.90;94.90
5210;DHT22;2624;48.048;11.706;2023-05-29T18:30:21;20.90;94.30
5210;DHT22;2624;48.048;11.706;2023-05-29T18:35:23;20.80;94.40
5210;DHT22;2624;48.048;11.706;2023-05-29T18:40:26;20.70;94.90
5210;DHT22;2624;48.048;11.706;2023-05-29T18:45:28;20.60;95.00
5210;DHT22;2624;48.048;11.706;2023-05-29T18:50:29;20.60;95.50
5210;DHT22;2624;48.048;11.706;2023-05-29T18:55:33;20.60;95.00
5210;DHT22;2624;48.048;11.706;2023-05-29T19:00:34;20.50;95.80
5210;DHT22;2624;48.048;11.706;2023-05-29T19:05:36;20.30;95.30
5210;DHT22;2624;48.048;11.706;2023-05-29T19:10:39;20.30;96.40
5210;DHT22;2624;48.048;11.706;2023-05-29T19:15:41;20.20;95.90
5210;DHT22;2624;48.048;11.706;2023-05-29T19:20:43;19.80;96.20
5210;DHT22;2624;48.048;11.706;2023-05-29T19:25:46;19.60;95.60
5210;DHT22;2624;48.048;11.706;2023-05-29T19:30:48;19.60;96.90
5210;DHT22;2624;48.048;11.706;2023-05-29T19:35:49;19.90;96.40
5210;DHT22;2624;48.048;11.706;2023-05-29T19:40:52;19.50;96.60
5210;DHT22;2624;48.048;11.706;2023-05-29T19:45:54;19.50;97.70
5210;DHT22;2624;48.048;11.706;2023-05-29T19:50:56;19.50;96.80
5210;DHT22;2624;48.048;11.706;2023-05-29T19:55:59;19.60;97.10
5210;DHT22;2624;48.048;11.706;2023-05-29T20:01:00;19.80;97.10
5210;DHT22;2624;48.048;11.706;2023-05-29T20:06:02;19.50;96.60
5210;DHT22;2624;48.048;11.706;2023-05-29T20:11:06;19.80;97.00
5210;DHT22;2624;48.048;11.706;2023-05-29T20:16:07;19.80;96.00
5210;DHT22;2624;48.048;11.706;2023-05-29T20:21:09;18.90;96.60
5210;DHT22;2624;48.048;11.706;2023-05-29T20:26:12;18.70;97.10
5210;DHT22;2624;48.048;11.706;2023-05-29T20:31:14;18.40;97.20
5210;DHT22;2624;48.048;11.706;2023-05-29T20:36:16;18.30;97.50
5210;DHT22;2624;48.048;11.706;2023-05-29T20:41:21;18.20;97.70
5210;DHT22;2624;48.048;11.706;2023-05-29T20:46:23;18.20;98.10
5210;DHT22;2624;48.048;11.706;2023-05-29T20:51:26;18.10;98.00
5210;DHT22;2624;48.048;11.706;2023-05-29T20:56:29;18.00;98.30
5210;DHT22;2624;48.048;11.706;2023-05-29T21:01:31;18.00;98.20
5210;DHT22;2624;48.048;11.706;2023-05-29T21:06:33;18.70;98.40
5210;DHT22;2624;48.048;11.706;2023-05-29T21:11:37;18.50;97.90
5210;DHT22;2624;48.048;11.706;2023-05-29T21:16:39;17.80;98.30
5210;DHT22;2624;48.048;11.706;2023-05-29T21:21:41;18.30;98.50
5210;DHT22;2624;48.048;11.706;2023-05-29T21:26:44;18.50;98.20
5210;DHT22;2624;48.048;11.706;2023-05-29T21:31:45;18.30;98.80
5210;DHT22;2624;48.048;11.706;2023-05-29T21:36:47;18.50;98.40
5210;DHT22;2624;48.048;11.706;2023-05-29T21:41:50;17.90;99.10
5210;DHT22;2624;48.048;11.706;2023-05-29T21:46:53;18.30;98.40
5210;DHT22;2624;48.048;11.706;2023-05-29T21:51:55;17.70;98.60
5210;DHT22;2624;48.048;11.706;2023-05-29T21:56:58;18.20;98.80
5210;DHT22;2624;48.048;11.706;2023-05-29T22:02:02;17.80;98.50
5210;DHT22;2624;48.048;11.706;2023-05-29T22:07:04;17.80;99.00
5210;DHT22;2624;48.048;11.706;2023-05-29T22:12:08;18.00;98.70
5210;DHT22;2624;48.048;11.706;2023-05-29T22:17:11;17.50;98.70
5210;DHT22;2624;48.048;11.706;2023-05-29T22:22:13;17.30;98.60
5210;DHT22;2624;48.048;11.706;2023-05-29T22:27:16;17.10;99.20
5210;DHT22;2624;48.048;11.706;2023-05-29T22:32:18;16.80;99.10
5210;DHT22;2624;48.048;11.706;2023-05-29T22:37:20;17.20;98.90
5210;DHT22;2624;48.048;11.706;2023-05-29T22:42:23;17.50;98.80
5210;DHT22;2624;48.048;11.706;2023-05-29T22:47:25;16.60;99.30
5210;DHT22;2624;48.048;11.706;2023-05-29T22:52:26;16.20;99.90
5210;DHT22;2624;48.048;11.706;2023-05-29T22:57:30;16.70;99.90
5210;DHT22;2624;48.048;11.706;2023-05-29T23:02:32;16.60;99.40
5210;DHT22;2624;48.048;11.706;2023-05-29T23:07:34;16.30;99.90
5210;DHT22;2624;48.048;11.706;2023-05-29T23:12:37;16.70;99.50
5210;DHT22;2624;48.048;11.706;2023-05-29T23:17:39;16.20;99.90
5210;DHT22;2624;48.048;11.706;2023-05-29T23:22:42;16.20;99.90
5210;DHT22;2624;48.048;11.706;2023-05-29T23:27:45;17.10;99.10
5210;DHT22;2624;48.048;11.706;2023-05-29T23:32:46;17.20;98.60
5210;DHT22;2624;48.048;11.706;2023-05-29T23:37:48;16.50;99.10
5210;DHT22;2624;48.048;11.706;2023-05-29T23:42:51;16.20;99.40
5210;DHT22;2624;48.048;11.706;2023-05-29T23:47:53;16.20;99.80
5210;DHT22;2624;48.048;11.706;2023-05-29T23:52:54;16.10;99.60
5210;DHT22;2624;48.048;11.706;2023-05-29T23:57:57;16.60;99.30
